CO48 weather

Public forecast

Using degrees Fahrenheit for public forecast. Weather courtesy of forecast.io.

Closest aviation weather report (METAR) to Crop Air Inc Airport

Closest report is Greeley–Weld County Airport, 4.6 nm (8.5 km) S. Retrieved 2020/08/09 16:56 UTC (51 minutes ago):

KGXY 091656Z AUTO 22005KT 10SM CLR 32/03 A3009 RMK AO2 SLP138 T03220028

Closest aviation forecast (TAF) to Crop Air Inc Airport

Closest forecast is Denver International Airport, 39.1 nm (72.4 km) S. Retrieved 2020/08/09 12:22 UTC (5 hours ago):

TAF KDEN 091120Z 0912/1018 22007KT P6SM FEW150 FM091700 01007KT P6SM FEW150 FM092200 07010KT P6SM SCT150 FM100200 19010KT P6SM FEW150 FM100800 35010KT P6SM FEW150